Airfield :
LOGIN :

Register | Disclaimer

   EN    FR    IT 

 










Legend :    VFR   Marginal VFR   IFR   Intensive IFR   Very Intensive IFR
Visi :
Ceiling :
>= 8 km
>= 3000ft
5 to 8 km
1000 to 3000 ft
1500m to 5 km
500 to 1000 ft
800 to 1500m
200 to 500 ft
< 800m
< 200 ft
Symbols :   Thunderstorms  Fog  Heavy snow  Heavy precipitations  Wind > 20 kt
SIGMETs :     Misc.  Thunderstorms  Icing  Turbulence  Mountain Waves  Volcanic Ashes







- Airport Elevation : 659 ft
- IATA code : LGG


EBLG - Liège

CURRENT METAR :
  • 210420Z 28007KT 3700 BR BKN002 BKN003 01/01 Q1011 NOSIG

EXPIRED METARs :
  • 210350Z 29008KT 4000 BR BKN003 BKN004 02/01 Q1011 NOSIG
  • 210320Z 29006KT 3100 BR SCT002 BKN004 01/01 Q1010 NOSIG
  • 210250Z 30006KT 260V330 3700 BR BKN003 BKN004 01/01 Q1009 NOSIG
  • 210220Z 30007KT 270V330 2800 -RA BR SCT001 BKN003 01/01 Q1009 NOSIG
  • 210150Z 29008KT 2000 -RA BR BKN001 BKN002 01/01 Q1008 TEMPO 0500 SHSNRA FG

TAF TAF EBLG
Valid from the 21 at 00:00 until the 22 at 06:00 UTC


202310Z 2100/2206 27006KT 3000 -SN -SNRA BR BKN003
BECMG 2100/2103 SCT003 BKN006
TEMPO 2100/2104 0400 FG BKN001
BECMG 2103/2105 6000 NSW SCT006 BKN011
BECMG 2104/2106 SCT011
PROB30
TEMPO 2104/2109 BKN006
BECMG 2116/2118 18011KT SCT006 BKN012
PROB30
TEMPO 2118/2120 2500 -RASN -SNRA SCT004 BKN006
TEMPO 2120/2203 2500 RADZ RA BKN004
BECMG 2202/2204 27009KT
PROB40
TEMPO 2203/2206 1500 BR BKN002
No reported NOTAMs for that airfield.



MET'MAP, your aeronautical weather chart ! - Copyright ORBIFLY December 2007 - Disclaimer

ORBIFLY MET'MAP TEAM :

Programming & Development : Alexandra Zaïnal
Concept & Development : Baudouin d'Aumeries
Co-Development & Prog : Marc-Olivier Méhu
Technical & hardware support : Manuel Goepfert

Contact : metmap@orbifly.com




SOURCES & CREDITS :

   NOAA